Time;durP1;ratioP1;P1;durP2;ratioP2;P2;SDS_P1;SDS_P2;PMS_P1;PMS_P2;Temp;Humidity;BMP_temperature;BMP_pressure;BME280_temperature;BME280_humidity;BME280_pressure;Samples;Min_cycle;Max_cycle;Signal;HPM_P1;HPM_P2
2022/10/04 00:02:28;;;;;;;12.10;5.60;;;;;;;-148.88;100.00;76707.63;4974070;28;20046;-89
2022/10/04 00:05:06;;;;;;;10.35;3.25;;;;;;;-148.88;100.00;76707.63;4968791;28;20061;-88
2022/10/04 00:07:51;;;;;;;7.45;4.95;;;;;;;-148.88;100.00;76707.63;4974264;28;20058;-89
2022/10/04 00:10:30;;;;;;;11.05;5.03;;;;;;;-148.88;100.00;76703.56;4973392;28;20489;-89
2022/10/04 00:13:18;;;;;;;12.18;4.97;;;;;;;-148.88;100.00;76707.63;4972530;28;20031;-89
2022/10/04 00:15:53;;;;;;;10.63;4.57;;;;;;;-148.88;100.00;76711.69;4972831;28;20085;-89
2022/10/04 00:18:37;;;;;;;13.48;5.03;;;;;;;-148.88;100.00;76707.63;4974134;28;20025;-89
2022/10/04 00:21:07;;;;;;;9.10;4.20;;;;;;;-148.88;100.00;76717.78;4972295;28;20042;-88
2022/10/04 00:23:35;;;;;;;10.75;5.00;;;;;;;-148.88;100.00;76715.75;4972819;28;20035;-88
2022/10/04 00:26:09;;;;;;;8.35;4.60;;;;;;;-148.88;100.00;76715.75;4973317;28;20165;-89
2022/10/04 00:28:35;;;;;;;9.73;4.38;;;;;;;-148.88;100.00;76717.78;4973568;28;20030;-89
2022/10/04 00:31:18;;;;;;;8.90;4.45;;;;;;;-148.88;100.00;76725.91;4972381;28;20034;-87
2022/10/04 00:33:55;;;;;;;11.40;5.45;;;;;;;-148.88;100.00;76723.88;4973698;28;20035;-88
2022/10/04 00:36:24;;;;;;;8.40;4.60;;;;;;;-148.88;100.00;76723.88;4973145;28;20081;-88
2022/10/04 00:39:07;;;;;;;8.98;4.53;;;;;;;-148.88;100.00;76732.00;4972397;28;20173;-89
2022/10/04 00:41:50;;;;;;;10.15;4.32;;;;;;;-148.88;100.00;76725.91;4972774;28;20041;-89
2022/10/04 00:44:34;;;;;;;10.30;4.55;;;;;;;-148.88;100.00;76723.88;4973810;28;20035;-89
2022/10/04 00:47:20;;;;;;;7.13;3.22;;;;;;;-148.88;100.00;76727.94;4972314;28;20046;-88
2022/10/04 00:50:10;;;;;;;8.75;3.95;;;;;;;-148.88;100.00;76713.72;4973834;28;20038;-89
2022/10/04 00:52:46;;;;;;;6.80;3.67;;;;;;;-148.88;100.00;76719.81;4972686;28;20363;-88
2022/10/04 00:55:27;;;;;;;10.50;4.80;;;;;;;-148.88;100.00;76734.03;4972020;28;20114;-87
2022/10/04 00:57:58;;;;;;;6.68;4.43;;;;;;;-148.88;100.00;76732.00;4973700;28;20034;-88
2022/10/04 01:00:34;;;;;;;8.88;4.38;;;;;;;-148.88;100.00;76736.06;4972660;28;20027;-88
2022/10/04 01:03:10;;;;;;;13.45;4.40;;;;;;;-148.88;100.00;76736.06;4972852;28;20081;-88
2022/10/04 01:05:39;;;;;;;11.95;4.93;;;;;;;-148.88;100.00;76732.00;4972393;28;20035;-88
2022/10/04 01:08:21;;;;;;;10.85;5.07;;;;;;;-148.88;100.00;76736.06;4975285;28;20055;-88
2022/10/04 01:11:16;;;;;;;9.27;4.72;;;;;;;-148.88;100.00;76732.00;4976005;28;20117;-88
2022/10/04 01:13:57;;;;;;;9.25;5.25;;;;;;;-148.88;100.00;76734.03;4974851;28;20137;-89
2022/10/04 01:16:35;;;;;;;8.77;5.28;;;;;;;-148.88;100.00;76729.97;4976439;28;20034;-88
2022/10/04 01:19:29;;;;;;;9.25;5.25;;;;;;;-148.88;100.00;76729.97;4976536;28;20466;-88
2022/10/04 01:22:03;;;;;;;9.88;5.53;;;;;;;-148.88;100.00;76723.88;4975445;28;20077;-88
2022/10/04 01:24:38;;;;;;;11.98;5.88;;;;;;;-148.88;100.00;76725.91;4975245;28;20189;-89
2022/10/04 01:27:43;;;;;;;13.60;5.40;;;;;;;-148.88;100.00;76713.72;4976101;28;20034;-88
2022/10/04 01:30:15;;;;;;;15.00;6.18;;;;;;;-148.88;100.00;76717.78;4976530;28;20062;-89
2022/10/04 01:32:41;;;;;;;10.35;5.70;;;;;;;-148.88;100.00;76705.59;4975306;28;20073;-88
2022/10/04 01:35:20;;;;;;;11.77;5.45;;;;;;;-148.88;100.00;76699.50;4974950;28;20054;-88
2022/10/04 01:37:45;;;;;;;9.80;5.40;;;;;;;-148.88;100.00;76697.47;4976138;28;20437;-87
2022/10/04 01:40:13;;;;;;;10.07;5.32;;;;;;;-148.88;100.00;76699.50;4975296;28;20050;-88
2022/10/04 01:42:49;;;;;;;9.93;5.10;;;;;;;-148.88;100.00;76719.81;4976533;28;20026;-88
2022/10/04 01:45:24;;;;;;;12.45;5.30;;;;;;;-148.88;100.00;76727.94;4976477;28;20022;-88
2022/10/04 01:47:59;;;;;;;12.00;5.45;;;;;;;-148.88;100.00;76723.88;4974664;28;20023;-89
2022/10/04 01:50:38;;;;;;;10.68;5.32;;;;;;;-148.88;100.00;76711.69;4974931;28;20034;-89
2022/10/04 01:53:21;;;;;;;10.27;5.50;;;;;;;-148.88;100.00;76711.69;4976458;28;20082;-89
2022/10/04 01:56:03;;;;;;;11.43;5.78;;;;;;;-148.88;100.00;76709.66;4975821;28;20559;-88
2022/10/04 01:58:39;;;;;;;14.88;7.00;;;;;;;-148.88;100.00;76703.56;4959288;28;20424;-89
2022/10/04 02:01:30;;;;;;;12.25;7.20;;;;;;;-148.88;100.00;76707.63;4976789;28;20273;-88
2022/10/04 02:04:31;;;;;;;11.77;6.88;;;;;;;-148.88;100.00;76705.59;4975644;28;20023;-88
2022/10/04 02:07:11;;;;;;;13.48;7.00;;;;;;;-148.88;100.00;76703.56;4976312;28;20030;-88
2022/10/04 02:09:42;;;;;;;14.52;6.97;;;;;;;-148.88;100.00;76699.50;4974897;28;20419;-88
2022/10/04 02:12:16;;;;;;;11.95;6.72;;;;;;;-148.88;100.00;76699.50;4974778;28;20037;-88
2022/10/04 02:15:07;;;;;;;;;;;;;;;-148.88;100.00;76701.53;4974514;28;20094;-89
2022/10/04 02:17:41;;;;;;;11.55;6.63;;;;;;;-148.88;100.00;76707.63;4973531;28;19914;-89
2022/10/04 02:20:20;;;;;;;13.57;7.05;;;;;;;-148.88;100.00;76703.56;4976391;28;20030;-89
2022/10/04 02:22:58;;;;;;;12.00;7.60;;;;;;;-148.88;100.00;76707.63;4974969;28;20050;-88
2022/10/04 02:25:25;;;;;;;12.27;7.60;;;;;;;-148.88;100.00;76701.53;4974214;28;20035;-88
2022/10/04 02:27:55;;;;;;;14.02;7.97;;;;;;;-148.88;100.00;76697.47;4975022;28;20085;-88
2022/10/04 02:30:24;;;;;;;13.07;7.47;;;;;;;-148.88;100.00;76691.38;4974987;28;20023;-88
2022/10/04 02:32:56;;;;;;;12.65;7.43;;;;;;;-148.88;100.00;76691.38;4958187;28;20065;-88
2022/10/04 02:35:40;;;;;;;11.60;7.60;;;;;;;-148.88;100.00;76691.38;4974213;28;20386;-89
2022/10/04 02:38:22;;;;;;;11.23;7.47;;;;;;;-148.88;100.00;76695.44;4974221;28;20054;-88
2022/10/04 02:41:03;;;;;;;15.23;7.82;;;;;;;-148.88;100.00;76703.56;4974332;28;20027;-88
2022/10/04 02:43:37;;;;;;;14.48;7.90;;;;;;;-148.88;100.00;76695.44;4958592;28;20030;-89
2022/10/04 02:46:46;;;;;;;13.90;8.00;;;;;;;-148.88;100.00;76699.50;4975328;28;20481;-88
2022/10/04 02:49:28;;;;;;;13.82;7.75;;;;;;;-148.88;100.00;76703.56;4976124;28;20456;-88
2022/10/04 02:52:28;;;;;;;13.88;8.25;;;;;;;-148.88;100.00;76707.63;4974235;28;20043;-87
2022/10/04 02:55:06;;;;;;;11.73;8.13;;;;;;;-148.88;100.00;76705.59;4973360;28;20026;-87
2022/10/04 02:57:37;;;;;;;13.98;8.57;;;;;;;-148.88;100.00;76705.59;4974023;28;20029;-89
2022/10/04 03:00:11;;;;;;;14.93;8.88;;;;;;;-148.88;100.00;76703.56;4973155;28;20042;-88
2022/10/04 03:02:38;;;;;;;14.75;8.60;;;;;;;-148.88;100.00;76699.50;4973482;28;20033;-88
2022/10/04 03:05:11;;;;;;;18.52;9.65;;;;;;;-148.88;100.00;76699.50;4973327;28;20037;-88
2022/10/04 03:07:38;;;;;;;13.20;9.13;;;;;;;-148.88;100.00;76699.50;4973466;28;20029;-88
2022/10/04 03:10:12;;;;;;;17.20;9.10;;;;;;;-148.88;100.00;76699.50;4973443;28;20030;-89
2022/10/04 03:12:39;;;;;;;15.57;9.38;;;;;;;-148.88;100.00;76703.56;4973657;28;20037;-88
2022/10/04 03:15:10;;;;;;;14.75;9.02;;;;;;;-148.88;100.00;76695.44;4974090;28;20467;-88
2022/10/04 03:17:36;;;;;;;17.10;9.48;;;;;;;-148.88;100.00;76693.41;4972925;28;20030;-88
2022/10/04 03:20:20;;;;;;;14.70;9.25;;;;;;;-148.88;100.00;76695.44;4973224;28;20045;-87
2022/10/04 03:22:54;;;;;;;17.42;9.77;;;;;;;-148.88;100.00;76693.41;4973095;28;20050;-89
2022/10/04 03:25:27;;;;;;;18.30;10.07;;;;;;;-148.88;100.00;76687.31;4973734;28;20042;-88
2022/10/04 03:27:54;;;;;;;11.52;5.85;;;;;;;-148.88;100.00;76687.31;4973031;28;20110;-88
2022/10/04 03:30:19;;;;;;;15.02;9.45;;;;;;;-148.88;100.00;76683.25;4973197;28;20557;-88
2022/10/04 03:32:46;;;;;;;14.90;9.93;;;;;;;-148.88;100.00;76679.19;4972781;28;20058;-89
2022/10/04 03:35:27;;;;;;;19.35;10.85;;;;;;;-148.88;100.00;76679.19;4973335;28;20501;-88
2022/10/04 03:37:55;;;;;;;18.23;10.50;;;;;;;-148.88;100.00;76681.22;4973147;28;20117;-88
2022/10/04 03:40:26;;;;;;;18.00;10.57;;;;;;;-148.88;100.00;76671.06;4972944;28;20077;-88
2022/10/04 03:42:55;;;;;;;19.25;11.25;;;;;;;-148.88;100.00;76671.06;4973803;28;20478;-88
2022/10/04 03:45:22;;;;;;;19.23;9.95;;;;;;;-148.88;100.00;76658.88;4973060;28;20030;-88
2022/10/04 03:47:50;;;;;;;14.43;10.15;;;;;;;-148.88;100.00;76658.88;4973305;28;20508;-89
2022/10/04 03:50:23;;;;;;;17.67;10.88;;;;;;;-148.88;100.00;76654.81;4972946;28;20026;-88
2022/10/04 03:53:02;;;;;;;;;;;;;;;-148.88;100.00;76650.75;4973499;28;20509;-89
2022/10/04 03:55:42;;;;;;;16.15;9.50;;;;;;;-148.88;100.00;76650.75;4974097;28;19910;-88
2022/10/04 03:58:15;;;;;;;15.80;9.68;;;;;;;-148.88;100.00;76650.75;4973230;28;20034;-88
2022/10/04 04:01:04;;;;;;;;;;;;;;;-148.88;100.00;76652.78;4973739;28;20035;-88
2022/10/04 04:03:41;;;;;;;15.10;9.98;;;;;;;-148.88;100.00;76646.69;4983478;28;19910;-88
2022/10/04 04:06:14;;;;;;;15.90;9.70;;;;;;;-148.88;100.00;76642.63;4973613;28;20031;-88
2022/10/04 04:08:43;;;;;;;11.30;6.45;;;;;;;-148.88;100.00;76638.56;4973398;28;20027;-88
2022/10/04 04:11:21;;;;;;;15.60;9.48;;;;;;;-148.88;100.00;76630.44;4973158;28;20042;-88
2022/10/04 04:14:13;;;;;;;18.88;9.77;;;;;;;-148.88;100.00;76626.38;4973298;28;20049;-89
2022/10/04 04:16:39;;;;;;;16.67;9.77;;;;;;;-148.88;100.00;76638.56;4973858;28;20089;-89
2022/10/04 04:19:14;;;;;;;14.32;9.40;;;;;;;-148.88;100.00;76634.50;4973215;28;20031;-88
2022/10/04 04:21:40;;;;;;;17.25;10.02;;;;;;;-148.88;100.00;76642.63;4973047;28;20128;-88
2022/10/04 04:24:17;;;;;;;23.48;13.93;;;;;;;-148.88;100.00;76642.63;4974012;28;20030;-88
2022/10/04 04:26:48;;;;;;;32.53;17.58;;;;;;;-148.88;100.00;76644.66;4973376;28;20030;-88
2022/10/04 04:29:17;;;;;;;18.48;11.65;;;;;;;-148.88;100.00;76648.72;4974179;28;20021;-88
2022/10/04 04:31:50;;;;;;;16.15;10.38;;;;;;;-148.88;100.00;76654.81;4973047;28;20030;-88
2022/10/04 04:34:23;;;;;;;16.40;9.43;;;;;;;-148.88;100.00;76654.81;4972888;28;20039;-88
2022/10/04 04:36:51;;;;;;;19.73;10.07;;;;;;;-148.88;100.00;76652.78;4972739;28;20026;-89
2022/10/04 04:42:20;;;;;;;13.30;9.75;;;;;;;-148.88;100.00;76662.94;4976693;28;20031;-86
2022/10/04 04:44:59;;;;;;;15.98;9.60;;;;;;;-148.88;100.00;76667.00;4976718;28;20039;-86
2022/10/04 04:47:35;;;;;;;15.07;9.35;;;;;;;-148.88;100.00;76673.09;4976597;28;20118;-87
2022/10/04 04:50:16;;;;;;;13.88;9.90;;;;;;;-148.88;100.00;76671.06;4976186;28;20023;-86
2022/10/04 04:52:46;;;;;;;15.98;10.18;;;;;;;-148.88;100.00;76669.03;4992410;28;20035;-87
2022/10/04 04:55:36;;;;;;;13.80;9.32;;;;;;;-148.88;100.00;76673.09;4976697;28;20026;-86
2022/10/04 04:58:07;;;;;;;17.92;9.50;;;;;;;-148.88;100.00;76673.09;4976163;28;20027;-86
2022/10/04 05:00:38;;;;;;;20.73;9.88;;;;;;;-148.88;100.00;76671.06;4976245;28;20482;-86
2022/10/04 05:03:18;;;;;;;15.18;10.13;;;;;;;-148.88;100.00;76667.00;4976069;28;20393;-85
2022/10/04 05:05:46;;;;;;;14.30;9.60;;;;;;;-148.88;100.00;76667.00;4976012;28;20497;-86
2022/10/04 05:08:29;;;;;;;14.57;9.88;;;;;;;-148.88;100.00;76658.88;4975746;28;20062;-89
2022/10/04 05:11:14;;;;;;;17.20;9.57;;;;;;;-148.88;100.00;76656.84;4975968;28;20022;-86
2022/10/04 05:13:50;;;;;;;13.82;9.15;;;;;;;-148.88;100.00;76662.94;4975599;28;20502;-86
2022/10/04 05:16:25;;;;;;;12.55;8.80;;;;;;;-148.88;100.00;76656.84;4976358;28;20026;-86
2022/10/04 05:18:58;;;;;;;11.98;8.60;;;;;;;-148.88;100.00;76662.94;4976400;28;20029;-86
2022/10/04 05:21:27;;;;;;;9.17;5.73;;;;;;;-148.88;100.00;76667.00;4975804;28;20489;-86
2022/10/04 05:23:56;;;;;;;13.50;8.57;;;;;;;-148.88;100.00;76662.94;4975464;28;20031;-86
2022/10/04 05:26:51;;;;;;;15.20;8.80;;;;;;;-148.88;100.00;76662.94;4975858;28;20365;-87
2022/10/04 05:29:24;;;;;;;13.98;9.25;;;;;;;-148.88;100.00;76658.88;4976212;28;20040;-87
2022/10/04 05:31:59;;;;;;;16.17;6.30;;;;;;;-148.88;100.00;76675.13;4976079;28;20022;-86
2022/10/04 05:34:30;;;;;;;14.20;8.60;;;;;;;-148.88;100.00;76667.00;4975924;28;20520;-87
2022/10/04 05:37:19;;;;;;;12.38;8.30;;;;;;;-148.88;100.00;76673.09;4976353;28;20054;-86
2022/10/04 05:39:51;;;;;;;11.43;9.05;;;;;;;-148.88;100.00;76673.09;4976040;28;20035;-87
2022/10/04 05:42:25;;;;;;;18.92;9.02;;;;;;;-148.88;100.00;76671.06;4975759;28;20031;-86
2022/10/04 05:44:56;;;;;;;17.58;8.93;;;;;;;-148.88;100.00;76679.19;4975445;28;20114;-86
2022/10/04 05:47:28;;;;;;;10.45;8.05;;;;;;;-148.88;100.00;76679.19;4975242;28;20430;-87
2022/10/04 05:49:56;;;;;;;13.00;8.68;;;;;;;-148.88;100.00;76683.25;4976379;28;20105;-87
2022/10/04 05:52:35;;;;;;;11.25;5.90;;;;;;;-148.88;100.00;76683.25;4975010;28;20089;-87
2022/10/04 05:55:22;;;;;;;12.23;7.97;;;;;;;-148.88;100.00;76683.25;4976636;28;20030;-86
2022/10/04 05:57:55;;;;;;;12.73;8.60;;;;;;;-148.88;100.00;76683.25;4974960;28;20027;-86
2022/10/04 06:00:23;;;;;;;14.13;8.50;;;;;;;-148.88;100.00;76681.22;4975880;28;20122;-87
2022/10/04 06:02:49;;;;;;;16.10;9.23;;;;;;;-148.88;100.00;76687.31;4976001;28;20549;-87
2022/10/04 06:05:25;;;;;;;17.70;9.13;;;;;;;-148.88;100.00;76683.25;4975488;28;20515;-87
2022/10/04 06:08:07;;;;;;;13.63;8.43;;;;;;;-148.88;100.00;76683.25;4974879;28;20019;-86
2022/10/04 06:10:59;;;;;;;12.05;8.68;;;;;;;-148.88;100.00;76683.25;4974875;28;20046;-86
2022/10/04 06:13:33;;;;;;;13.52;9.27;;;;;;;-148.88;100.00;76675.13;4976692;28;20034;-87
2022/10/04 06:16:13;;;;;;;11.18;8.25;;;;;;;-148.88;100.00;76675.13;4975034;28;20054;-87
2022/10/04 06:19:00;;;;;;;13.80;8.27;;;;;;;-148.88;100.00;76671.06;4974777;28;20049;-87
2022/10/04 06:21:50;;;;;;;9.60;4.70;;;;;;;-148.88;100.00;76677.16;4975387;28;20030;-87
2022/10/04 06:24:20;;;;;;;16.55;8.52;;;;;;;-148.88;100.00;76667.00;4985707;28;20062;-87
2022/10/04 06:26:52;;;;;;;12.88;8.43;;;;;;;-148.88;100.00;76662.94;4974714;28;20026;-87
2022/10/04 06:29:27;;;;;;;14.32;8.00;;;;;;;-148.88;100.00;76660.91;4974976;28;20126;-86
2022/10/04 06:32:11;;;;;;;12.93;8.32;;;;;;;-148.88;100.00;76658.88;4975001;28;20088;-87
2022/10/04 06:34:57;;;;;;;12.98;9.55;;;;;;;-148.88;100.00;76658.88;4974562;28;20035;-87
2022/10/04 06:37:33;;;;;;;15.05;9.00;;;;;;;-148.88;100.00;76660.91;4974260;28;20031;-87
2022/10/04 06:40:26;;;;;;;15.90;10.15;;;;;;;-148.88;100.00;76658.88;4975208;28;20033;-87
2022/10/04 06:43:16;;;;;;;14.13;9.13;;;;;;;-148.88;100.00;76646.69;4974353;28;20022;-87
2022/10/04 06:45:58;;;;;;;19.88;6.30;;;;;;;-148.88;100.00;76642.63;4974472;28;20022;-87
2022/10/04 06:48:47;;;;;;;12.68;9.18;;;;;;;-148.88;100.00;76626.38;4974978;28;20018;-87
2022/10/04 06:51:31;;;;;;;12.85;7.22;;;;;;;-148.88;100.00;76622.31;4990216;28;20122;-87
2022/10/04 06:54:17;;;;;;;15.18;8.95;;;;;;;-148.88;100.00;76616.22;4974305;28;20022;-88
2022/10/04 06:57:00;;;;;;;12.98;9.02;;;;;;;-148.88;100.00;76618.25;4975272;28;20058;-87
2022/10/04 06:59:35;;;;;;;9.68;5.57;;;;;;;-148.88;100.00;76606.06;4973953;28;20027;-87
2022/10/04 07:02:19;;;;;;;17.90;9.60;;;;;;;-148.88;100.00;76606.06;4973773;28;20027;-87
2022/10/04 07:05:00;;;;;;;;;;;;;;;-148.88;100.00;76601.97;4973970;28;20033;-87
2022/10/04 07:07:35;;;;;;;14.95;8.98;;;;;;;-148.88;100.00;76589.78;4973972;28;19988;-87
2022/10/04 07:10:25;;;;;;;16.55;9.52;;;;;;;-148.88;100.00;76579.63;4974084;28;20037;-87
2022/10/04 07:13:02;;;;;;;16.20;9.35;;;;;;;-148.88;100.00;76571.50;4974580;28;20497;-88
2022/10/04 07:15:36;;;;;;;15.60;9.43;;;;;;;-148.88;100.00;76563.38;4973643;28;20397;-87
2022/10/04 07:18:09;;;;;;;13.48;9.60;;;;;;;-148.88;100.00;76557.28;4974160;28;20034;-88
2022/10/04 07:20:36;;;;;;;14.55;8.63;;;;;;;-148.88;100.00;76549.16;4975000;28;20026;-87
2022/10/04 07:23:13;;;;;;;12.45;8.40;;;;;;;-148.88;100.00;76534.94;4975235;28;20029;-88
2022/10/04 07:25:50;;;;;;;14.30;8.93;;;;;;;-148.88;100.00;76545.09;4974872;28;20058;-88
2022/10/04 07:31:21;;;;;;;15.95;9.45;;;;;;;-148.88;100.00;76543.06;4975467;28;20037;-88
2022/10/04 07:33:53;;;;;;;13.20;8.50;;;;;;;-148.88;100.00;76541.03;4974042;28;20050;-88
2022/10/04 07:36:30;;;;;;;16.38;8.65;;;;;;;-148.88;100.00;76541.03;4974498;28;20023;-87
2022/10/04 07:39:03;;;;;;;16.00;8.77;;;;;;;-148.88;100.00;76545.09;4973785;28;20025;-88
2022/10/04 07:41:34;;;;;;;15.75;8.45;;;;;;;-148.88;100.00;76545.09;4975020;28;20035;-88
2022/10/04 07:44:19;;;;;;;17.80;8.95;;;;;;;-148.88;100.00;76545.09;4973796;28;20037;-88
2022/10/04 07:46:51;;;;;;;14.20;8.60;;;;;;;-148.88;100.00;76541.03;4974023;28;20086;-88
2022/10/04 07:49:24;;;;;;;18.42;10.05;;;;;;;-148.88;100.00;76543.06;4974070;28;20121;-88
2022/10/04 07:52:25;;;;;;;14.23;9.18;;;;;;;-148.88;100.00;76536.97;4974455;28;20027;-88
2022/10/04 07:54:55;;;;;;;12.25;8.93;;;;;;;-148.88;100.00;76532.91;4981426;28;20489;-87
2022/10/04 07:57:46;;;;;;;12.60;8.73;;;;;;;-148.88;100.00;76524.78;4973815;28;20058;-88
2022/10/04 08:00:16;;;;;;;15.75;10.43;;;;;;;-148.88;100.00;76516.66;4974733;28;20026;-88
2022/10/04 08:03:00;;;;;;;17.48;9.63;;;;;;;-148.88;100.00;76512.59;4973450;28;20022;-88
2022/10/04 08:05:46;;;;;;;15.50;9.15;;;;;;;-148.88;100.00;76498.38;4974668;28;20026;-88
2022/10/04 08:08:39;;;;;;;18.50;9.65;;;;;;;-148.88;100.00;76496.34;4974877;28;20019;-88
2022/10/04 08:11:17;;;;;;;17.98;10.02;;;;;;;-148.88;100.00;76465.88;4974587;28;20081;-88
2022/10/04 08:13:50;;;;;;;17.08;9.75;;;;;;;-148.88;100.00;76453.69;4973093;28;20541;-88
2022/10/04 08:16:45;;;;;;;12.65;8.48;;;;;;;-148.88;100.00;76431.34;4974541;28;20030;-88
2022/10/04 08:19:41;;;;;;;13.75;8.27;;;;;;;-148.88;100.00;76417.09;4978241;28;20023;-88
2022/10/04 08:22:29;;;;;;;17.35;8.93;;;;;;;-148.88;100.00;76388.66;4977877;28;20085;-88
2022/10/04 08:25:13;;;;;;;15.25;9.40;;;;;;;-148.88;100.00;76382.56;4976972;28;20023;-87
2022/10/04 08:31:06;;;;;;;9.43;7.32;;;;;;;-148.88;98.49;76354.13;4978766;28;20030;-89
2022/10/04 08:34:00;;;;;;;11.50;7.60;;;;;;;-148.88;99.48;76337.88;4978964;28;20406;-88
2022/10/04 08:36:41;;;;;;;14.10;7.05;;;;;;;-148.88;100.00;76305.38;4978178;28;20030;-88
2022/10/04 08:39:27;;;;;;;10.63;7.20;;;;;;;-148.88;100.00;76283.03;4977649;28;20027;-88
2022/10/04 08:42:04;;;;;;;16.77;7.53;;;;;;;-148.88;98.58;76268.81;4978023;28;20500;-89
2022/10/04 08:44:49;;;;;;;14.88;7.68;;;;;;;-148.88;97.78;76232.25;4978192;28;20027;-88
2022/10/04 08:47:28;;;;;;;11.43;6.82;;;;;;;-148.88;96.51;76195.69;4977978;28;20027;-89
2022/10/04 08:50:24;;;;;;;11.25;6.82;;;;;;;-148.88;96.13;76167.25;4978270;28;20026;-88
2022/10/04 08:53:17;;;;;;;14.30;6.55;;;;;;;-148.88;93.24;76118.47;4978806;28;20031;-87
2022/10/04 08:55:57;;;;;;;10.02;5.68;;;;;;;-148.88;88.81;76122.56;4978219;28;20441;-89
2022/10/04 08:58:38;;;;;;;14.48;6.07;;;;;;;-148.88;86.42;76102.22;4980370;28;20054;-88
2022/10/04 09:01:38;;;;;;;8.23;5.22;;;;;;;-148.88;87.18;76090.03;4979275;28;20390;-88
2022/10/04 09:04:31;;;;;;;10.20;5.20;;;;;;;-148.88;83.16;76073.78;4978504;28;20022;-88
2022/10/04 09:07:32;;;;;;;12.70;5.18;;;;;;;-148.88;84.98;76047.38;4978558;28;20027;-87
2022/10/04 09:10:19;;;;;;;10.57;5.03;;;;;;;-148.88;85.64;76029.09;4981106;28;20034;-88
2022/10/04 09:13:12;;;;;;;8.57;5.07;;;;;;;-148.88;85.57;75996.59;4980511;28;20073;-90
2022/10/04 09:16:02;;;;;;;7.28;4.65;;;;;;;-148.88;82.26;75955.97;4978492;28;20034;-89
2022/10/04 09:19:00;;;;;;;10.82;4.50;;;;;;;-148.88;81.21;75937.69;4977435;28;20118;-90
2022/10/04 09:21:31;;;;;;;9.65;4.20;;;;;;;-148.88;79.98;75911.28;4972405;28;20106;-89
2022/10/04 09:24:31;;;;;;;13.52;4.40;;;;;;;-148.88;79.88;75903.16;4977593;28;20041;-89
2022/10/04 09:27:11;;;;;;;10.15;4.03;;;;;;;-148.88;77.24;75890.97;4976972;28;20112;-88
2022/10/04 09:29:58;;;;;;;8.70;4.00;;;;;;;-148.88;76.24;75858.47;4977502;28;20031;-88
2022/10/04 09:33:04;;;;;;;11.52;4.18;;;;;;;-148.88;74.83;75852.38;4976782;28;20019;-88
2022/10/04 09:35:41;;;;;;;5.38;3.05;;;;;;;-148.88;75.18;75830.03;4979103;28;20039;-89
2022/10/04 09:38:44;;;;;;;7.47;3.33;;;;;;;-148.88;72.84;75803.63;4976782;28;20030;-87
2022/10/04 09:41:36;;;;;;;6.05;2.90;;;;;;;-148.88;72.60;75785.34;4975832;28;20121;-88
2022/10/04 09:44:23;;;;;;;7.75;3.17;;;;;;;-148.88;73.22;75789.41;4976727;28;20519;-87
2022/10/04 09:47:20;;;;;;;6.38;3.30;;;;;;;-148.88;73.19;75773.16;4976047;28;20027;-88
2022/10/04 09:50:23;;;;;;;7.85;3.53;;;;;;;-148.88;70.00;75752.84;4976972;28;20026;-88
2022/10/04 09:53:01;;;;;;;6.65;3.17;;;;;;;-148.88;71.03;75736.59;4975864;28;20030;-87
2022/10/04 09:56:08;;;;;;;6.57;3.08;;;;;;;-148.88;70.07;75732.53;4975750;28;20031;-88
2022/10/04 09:59:11;;;;;;;7.68;2.97;;;;;;;-148.88;70.17;75714.25;4977253;28;20035;-87
2022/10/04 10:02:04;;;;;;;6.93;2.65;;;;;;;-148.88;67.60;75698.00;4976881;28;20023;-86
2022/10/04 10:05:20;;;;;;;7.27;2.77;;;;;;;-148.88;67.25;75691.91;4976762;28;20023;-88
2022/10/04 10:08:07;;;;;;;7.75;3.10;;;;;;;-148.88;68.28;75710.19;4955402;29;20253;-88
2022/10/04 10:14:29;;;;;;;7.35;2.67;;;;;;;-148.88;66.06;75714.25;4976677;28;20106;-87
2022/10/04 10:17:02;;;;;;;;;;;;;;;-148.88;68.17;75687.84;4975562;28;20458;-87
2022/10/04 10:19:34;;;;;;;7.10;2.63;;;;;;;-148.88;67.05;75663.47;4975918;28;19914;-90
2022/10/04 10:22:47;;;;;;;6.18;2.53;;;;;;;-148.88;66.66;75610.66;4975093;28;20397;-87
2022/10/04 10:25:47;;;;;;;8.80;3.10;;;;;;;-148.88;63.26;75630.97;4976339;28;20026;-89
2022/10/04 10:28:41;;;;;;;7.13;2.92;;;;;;;-148.88;63.63;75588.34;4974875;28;20019;-86
2022/10/04 10:31:22;;;;;;;9.30;2.58;;;;;;;-148.88;63.16;75566.00;4975460;28;20493;-87
2022/10/04 10:34:07;;;;;;;7.72;2.60;;;;;;;-148.88;62.17;75586.31;4976108;28;20046;-87
2022/10/04 10:37:05;;;;;;;5.57;2.63;;;;;;;-148.88;63.13;75549.75;4976176;28;20073;-87
2022/10/04 10:39:55;;;;;;;11.82;2.78;;;;;;;-148.88;62.95;75553.81;4973740;28;20501;-87
2022/10/04 10:42:37;;;;;;;7.18;2.63;;;;;;;-148.88;60.84;75492.88;4975391;28;20019;-87
2022/10/04 10:45:42;;;;;;;6.72;2.40;;;;;;;-148.88;59.56;75501.00;4974674;28;20023;-87
2022/10/04 10:48:29;;;;;;;7.68;2.60;;;;;;;-148.88;61.10;75498.97;4975156;28;20485;-86
2022/10/04 10:50:57;;;;;;;7.80;3.00;;;;;;;-148.88;61.82;75513.19;4975078;28;20038;-87
2022/10/04 10:53:41;;;;;;;6.65;2.80;;;;;;;-148.88;60.54;75460.38;4974289;28;20027;-86
2022/10/04 10:56:46;;;;;;;6.05;2.60;;;;;;;-148.88;58.56;75423.81;4974269;28;20113;-87
2022/10/04 10:59:30;;;;;;;;;;;;;;;-148.88;60.22;75468.50;4979934;28;20038;-82
2022/10/04 11:02:23;;;;;;;7.03;2.65;;;;;;;-148.88;58.60;75419.75;4979276;28;19933;-83
2022/10/04 11:05:19;;;;;;;8.00;2.45;;;;;;;-148.88;58.12;75362.88;4978457;28;20102;-82
2022/10/04 11:07:52;;;;;;;7.03;3.08;;;;;;;-148.88;56.68;75350.69;4976782;28;20046;-81
2022/10/04 11:10:42;;;;;;;8.40;2.65;;;;;;;-148.88;58.12;75362.88;4976473;28;20023;-82
2022/10/04 11:13:36;;;;;;;8.75;3.00;;;;;;;-148.88;57.49;75391.31;4976092;28;20035;-82
2022/10/04 11:16:40;;;;;;;7.07;3.10;;;;;;;-148.88;57.54;75403.50;4977020;28;20035;-82
2022/10/04 11:19:20;;;;;;;6.90;3.00;;;;;;;-148.88;56.21;75362.88;4976918;28;20568;-82
2022/10/04 11:22:20;;;;;;;6.20;2.97;;;;;;;-148.88;57.20;75393.34;4976557;28;20035;-82
2022/10/04 11:25:01;;;;;;;6.68;2.83;;;;;;;-148.88;57.78;75407.56;4978039;28;20106;-82
2022/10/04 11:27:42;;;;;;;7.32;3.30;;;;;;;-148.88;56.73;75385.22;4976388;28;20042;-82
2022/10/04 11:30:25;;;;;;;9.60;3.10;;;;;;;-148.88;57.86;75344.59;4975452;28;20504;-82
2022/10/04 11:33:28;;;;;;;6.28;3.05;;;;;;;-148.88;57.75;75330.38;4975800;28;20042;-83
2022/10/04 11:36:06;;;;;;;6.30;3.17;;;;;;;-148.88;55.97;75348.66;4996102;23;20046;-76
2022/10/04 11:38:50;;;;;;;7.05;3.00;;;;;;;-148.88;56.70;75393.34;4974926;28;20031;-77
2022/10/04 11:41:15;;;;;;;;;;;;;;;-148.88;56.37;75375.06;4974253;28;20049;-76
2022/10/04 11:44:17;;;;;;;8.75;3.40;;;;;;;-148.88;57.64;75401.47;4974512;28;19914;-79
2022/10/04 11:46:55;;;;;;;8.85;3.10;;;;;;;-148.88;57.14;75348.66;4974769;28;20121;-77
2022/10/04 11:49:46;;;;;;;7.47;2.75;;;;;;;-148.88;57.33;75314.13;4975720;28;20025;-79
2022/10/04 11:52:26;;;;;;;5.47;2.72;;;;;;;-148.88;55.45;75306.00;4975808;28;20039;-78
2022/10/04 11:55:09;;;;;;;10.73;2.80;;;;;;;-148.88;55.60;75279.59;4977204;28;20440;-78
2022/10/04 11:57:53;;;;;;;5.57;3.08;;;;;;;-148.88;57.43;75267.44;4977343;28;20031;-79
2022/10/04 12:00:23;;;;;;;5.07;2.53;;;;;;;-148.88;55.36;75253.22;4976047;28;20031;-79
2022/10/04 12:03:26;;;;;;;6.45;3.08;;;;;;;-148.88;53.36;75301.94;4977382;28;20086;-79
2022/10/04 12:05:52;;;;;;;6.68;3.42;;;;;;;-148.88;54.37;75261.34;4977469;28;20110;-79
2022/10/04 12:09:04;;;;;;;7.22;3.30;;;;;;;-148.88;55.26;75314.13;4976789;28;20061;-79
2022/10/04 12:15:06;;;;;;;9.18;3.60;;;;;;;-148.88;57.30;75277.59;4976521;28;20046;-77
2022/10/04 12:17:45;;;;;;;10.02;3.35;;;;;;;-148.88;55.84;75241.03;4976541;28;20029;-78
2022/10/04 12:20:34;;;;;;;8.38;3.15;;;;;;;-148.88;56.59;75234.94;4977151;28;20056;-79
2022/10/04 12:23:10;;;;;;;6.68;3.58;;;;;;;-148.88;54.38;75241.03;4976643;28;20031;-78
2022/10/04 12:25:41;;;;;;;9.57;3.83;;;;;;;-148.88;56.25;75241.03;4975315;28;20573;-78